Baileyville, Texas
Current Conditions -  °F | °C
As of 12:15 AM on Saturday 29 Nov 2014 (Local Time) from KT35 Reporting Station
Clear Clear  
Wind Chill: 58°   Ceiling: Unl
Heat Index: 58°   Visibility: 10mi
Dew Point: 52°   Wind: 10mph
Humidity: 81%   Direction: 200°SSW
Pressure: 30.07"   Gusts: 17mph
Location:  31.0981°N, 96.99°W
Report Text: KT35 290615Z AUTO 20009G15KT 10SM CLR 14/11 A3007 RMK AO2 T01420110
Loading
Personal Weather Stations






























Interactive Weather Map New forecast layout! Learn more

10-Day Weather Forecast

Advertisements
Track Severe Weather on mobile